createdAt,value
2019-03-22T00:01:52.799Z,31.17
2019-03-22T00:04:19.619Z,31.67
2019-03-22T00:06:45.878Z,32.67
2019-03-22T00:09:12.246Z,34.03
2019-03-22T00:11:38.576Z,32.00
2019-03-22T00:14:04.914Z,31.50
2019-03-22T00:16:31.245Z,34.27
2019-03-22T00:18:57.528Z,32.80
2019-03-22T00:21:23.897Z,31.27
2019-03-22T00:23:50.124Z,34.47
2019-03-22T00:26:16.415Z,32.70
2019-03-22T00:28:42.790Z,32.13
2019-03-22T00:31:09.119Z,32.97
2019-03-22T00:33:35.653Z,33.40
2019-03-22T00:36:01.982Z,35.37
2019-03-22T00:38:28.316Z,35.60
2019-03-22T00:40:54.641Z,36.10
2019-03-22T00:43:20.852Z,37.17
2019-03-22T00:45:47.147Z,34.23
2019-03-22T00:48:13.532Z,33.37
2019-03-22T00:50:39.757Z,32.23
2019-03-22T00:53:06.042Z,33.57
2019-03-22T00:55:52.210Z,35.20
2019-03-22T00:58:18.516Z,33.93
2019-03-22T01:00:45.261Z,35.17
2019-03-22T01:03:11.749Z,34.07
2019-03-22T01:05:38.119Z,33.63
2019-03-22T01:08:04.761Z,31.43
2019-03-22T01:10:30.983Z,34.33
2019-03-22T01:12:57.315Z,34.93
2019-03-22T01:15:23.574Z,36.60
2019-03-22T01:17:49.872Z,36.20
2019-03-22T01:20:16.205Z,36.20
2019-03-22T01:22:42.533Z,36.70
2019-03-22T01:25:10.064Z,36.77
2019-03-22T01:27:40.856Z,34.57
2019-03-22T01:30:17.819Z,36.37
2019-03-22T01:32:44.482Z,36.13
2019-03-22T01:35:12.004Z,35.57
2019-03-22T01:37:38.332Z,38.00
2019-03-22T01:40:07.121Z,35.97
2019-03-22T01:42:33.861Z,37.27
2019-03-22T01:45:00.415Z,35.93
2019-03-22T01:47:26.829Z,37.33
2019-03-22T01:49:53.035Z,38.20
2019-03-22T01:52:19.322Z,38.60
2019-03-22T01:54:45.633Z,36.00
2019-03-22T01:57:12.163Z,36.97
2019-03-22T01:59:38.804Z,33.63
2019-03-22T02:02:05.086Z,33.50
2019-03-22T02:04:31.448Z,33.93
2019-03-22T02:06:57.780Z,34.33
2019-03-22T02:09:24.432Z,35.00
2019-03-22T02:11:50.741Z,33.37
2019-03-22T02:14:17.043Z,34.13
2019-03-22T02:16:43.407Z,34.63
2019-03-22T02:19:09.955Z,35.23
2019-03-22T02:21:36.380Z,31.33
2019-03-22T02:24:03.113Z,31.83
2019-03-22T02:26:29.444Z,31.77
2019-03-22T02:28:55.776Z,30.60
2019-03-22T02:31:22.110Z,32.80
2019-03-22T02:33:48.396Z,32.80
2019-03-22T02:36:14.769Z,31.60
2019-03-22T02:38:41.576Z,31.47
2019-03-22T02:41:07.830Z,32.90
2019-03-22T02:43:34.499Z,31.30
2019-03-22T02:46:00.925Z,32.93
2019-03-22T02:48:27.567Z,33.70
2019-03-22T02:50:56.170Z,32.03
2019-03-22T02:53:23.791Z,31.80
2019-03-22T02:55:50.104Z,29.83
2019-03-22T02:58:21.044Z,32.53
2019-03-22T03:00:44.442Z,32.27
2019-03-22T03:03:10.846Z,31.27
2019-03-22T03:05:37.173Z,32.73
2019-03-22T03:08:03.515Z,34.00
2019-03-22T03:10:29.842Z,33.10
2019-03-22T03:12:56.485Z,32.20
2019-03-22T03:15:22.798Z,34.70
2019-03-22T03:17:49.075Z,31.23
2019-03-22T03:20:16.800Z,33.40
2019-03-22T03:22:43.230Z,32.97
2019-03-22T03:25:09.867Z,28.83
2019-03-22T03:27:36.727Z,30.30
2019-03-22T03:30:05.805Z,34.10
2019-03-22T03:32:32.134Z,31.57
2019-03-22T03:34:58.481Z,31.50
2019-03-22T03:37:24.896Z,33.20
2019-03-22T03:39:51.225Z,33.43
2019-03-22T03:42:17.493Z,32.30
2019-03-22T03:44:44.029Z,32.43
2019-03-22T03:47:10.751Z,32.53
2019-03-22T03:49:37.423Z,35.33
2019-03-22T03:52:03.805Z,31.30
2019-03-22T03:54:30.132Z,33.10
2019-03-22T03:56:56.563Z,33.00
2019-03-22T03:59:22.830Z,34.20
2019-03-22T04:01:49.106Z,31.53
2019-03-22T04:04:15.454Z,29.83
2019-03-22T04:06:43.689Z,32.03
2019-03-22T04:09:10.057Z,32.13
2019-03-22T04:11:36.395Z,30.03
2019-03-22T04:14:03.103Z,34.93
2019-03-22T04:16:29.460Z,31.60
2019-03-22T04:18:55.687Z,31.47
2019-03-22T04:21:22.017Z,32.20
2019-03-22T04:23:48.450Z,33.03
2019-03-22T04:26:14.777Z,33.47
2019-03-22T04:28:41.214Z,34.23
2019-03-22T04:31:07.528Z,33.57
2019-03-22T04:33:33.872Z,35.50
2019-03-22T04:36:00.113Z,34.27
2019-03-22T04:38:26.538Z,31.83
2019-03-22T04:40:52.847Z,32.90
2019-03-22T04:43:19.302Z,32.43
2019-03-22T04:45:46.799Z,33.50
2019-03-22T04:48:19.619Z,33.03
2019-03-22T04:50:47.882Z,34.80
2019-03-22T04:53:17.403Z,34.80
2019-03-22T04:55:46.609Z,34.30
2019-03-22T04:58:13.462Z,35.90
2019-03-22T05:00:41.122Z,34.30
2019-03-22T05:03:08.620Z,35.57
2019-03-22T05:05:35.116Z,36.60
2019-03-22T05:08:03.512Z,34.77
2019-03-22T05:10:30.253Z,35.17
2019-03-22T05:12:58.845Z,35.13
2019-03-22T05:15:25.657Z,34.70
2019-03-22T05:17:52.603Z,38.07
2019-03-22T05:20:20.697Z,37.33
2019-03-22T05:22:48.253Z,36.63
2019-03-22T05:25:17.243Z,37.13
2019-03-22T05:27:45.191Z,36.23
2019-03-22T05:30:47.608Z,37.47
2019-03-22T05:33:14.409Z,33.47
2019-03-22T05:35:40.638Z,37.60
2019-03-22T05:38:06.969Z,39.07
2019-03-22T05:40:33.296Z,37.90
2019-03-22T05:42:59.628Z,34.73
2019-03-22T05:45:25.967Z,41.57
2019-03-22T05:47:52.278Z,39.40
2019-03-22T05:50:18.586Z,36.07
2019-03-22T05:52:44.882Z,38.07
2019-03-22T05:55:11.504Z,37.67
2019-03-22T05:57:37.814Z,37.60
2019-03-22T06:00:06.010Z,38.37
2019-03-22T06:02:32.480Z,39.77
2019-03-22T06:04:58.693Z,37.77
2019-03-22T06:07:25.083Z,39.70
2019-03-22T06:09:51.513Z,39.63
2019-03-22T06:12:17.945Z,37.47
2019-03-22T06:14:44.264Z,38.70
2019-03-22T06:17:10.606Z,39.03
2019-03-22T06:19:37.045Z,38.27
2019-03-22T06:22:03.485Z,38.53
2019-03-22T06:24:29.790Z,41.07
2019-03-22T06:26:56.370Z,41.37
2019-03-22T06:29:22.655Z,42.70
2019-03-22T06:31:49.106Z,38.47
2019-03-22T06:34:15.433Z,41.37
2019-03-22T06:36:41.679Z,40.93
2019-03-22T06:39:07.988Z,40.90
2019-03-22T06:41:34.302Z,42.37
2019-03-22T06:44:00.649Z,41.23
2019-03-22T06:46:26.980Z,38.80
2019-03-22T06:48:53.525Z,41.43
2019-03-22T06:51:19.949Z,42.23
2019-03-22T06:53:46.276Z,40.90
2019-03-22T06:56:13.855Z,38.17
2019-03-22T06:58:43.343Z,40.40
2019-03-22T07:01:09.675Z,43.23
2019-03-22T07:03:35.927Z,41.97
2019-03-22T07:06:02.437Z,38.43
2019-03-22T07:08:29.096Z,40.77
2019-03-22T07:10:55.512Z,42.00
2019-03-22T07:13:21.732Z,39.67
2019-03-22T07:15:48.029Z,40.97
2019-03-22T07:18:14.493Z,40.70
2019-03-22T07:20:40.827Z,39.97
2019-03-22T07:23:07.876Z,41.97
2019-03-22T07:25:34.626Z,38.03
2019-03-22T07:28:00.918Z,39.63
2019-03-22T07:30:27.275Z,41.67
2019-03-22T07:32:53.537Z,41.63
2019-03-22T07:35:19.935Z,41.93
2019-03-22T07:37:46.154Z,39.80
2019-03-22T07:40:12.966Z,40.50
2019-03-22T07:42:39.657Z,39.30
2019-03-22T07:45:08.531Z,40.93
2019-03-22T07:47:34.864Z,40.67
2019-03-22T07:50:03.082Z,39.93
2019-03-22T07:52:29.406Z,38.03
2019-03-22T07:54:57.625Z,39.00
2019-03-22T07:57:23.871Z,39.03
2019-03-22T07:59:50.201Z,41.40
2019-03-22T08:02:16.428Z,40.53
2019-03-22T08:04:42.769Z,41.87
2019-03-22T08:07:09.051Z,40.90
2019-03-22T08:09:35.434Z,41.40
2019-03-22T08:12:01.757Z,41.70
2019-03-22T08:14:28.097Z,38.50
2019-03-22T08:16:54.512Z,39.10
2019-03-22T08:19:20.844Z,41.40
2019-03-22T08:21:47.239Z,41.30
2019-03-22T08:24:13.528Z,40.43
2019-03-22T08:26:39.939Z,40.07
2019-03-22T08:29:06.262Z,41.17
2019-03-22T08:31:32.591Z,38.77
2019-03-22T08:33:58.958Z,41.87
2019-03-22T08:36:25.361Z,41.40
2019-03-22T08:38:51.692Z,41.57
2019-03-22T08:41:18.025Z,40.67
2019-03-22T08:43:44.357Z,41.37
2019-03-22T08:46:10.796Z,39.07
2019-03-22T08:48:37.117Z,40.53
2019-03-22T08:51:03.449Z,38.47
2019-03-22T08:53:29.721Z,40.07
2019-03-22T08:55:56.135Z,40.20
2019-03-22T08:58:22.552Z,39.33
2019-03-22T09:00:57.509Z,41.87
2019-03-22T09:03:17.288Z,41.27
2019-03-22T09:05:43.684Z,40.13
2019-03-22T09:08:10.118Z,41.20
2019-03-22T09:10:36.551Z,39.77
2019-03-22T09:13:02.984Z,40.67
2019-03-22T09:15:40.631Z,39.07
2019-03-22T09:17:57.495Z,39.70
2019-03-22T09:20:23.788Z,38.33
2019-03-22T09:22:50.148Z,37.13
2019-03-22T09:25:16.381Z,37.07
2019-03-22T09:27:42.710Z,35.97
2019-03-22T09:30:11.687Z,35.60
2019-03-22T09:32:38.009Z,33.70
2019-03-22T09:35:05.018Z,37.00
2019-03-22T09:37:31.406Z,35.97
2019-03-22T09:39:57.736Z,35.30
2019-03-22T09:42:24.078Z,35.70
2019-03-22T09:44:50.435Z,33.07
2019-03-22T09:47:17.167Z,34.50
2019-03-22T09:49:43.570Z,34.13
2019-03-22T09:52:09.901Z,34.17
2019-03-22T09:54:36.364Z,33.73
2019-03-22T09:57:02.764Z,31.85
2019-03-22T09:59:29.096Z,33.40
2019-03-22T10:01:55.427Z,32.47
2019-03-22T10:04:21.727Z,33.57
2019-03-22T10:06:48.090Z,33.50
2019-03-22T10:09:14.525Z,31.17
2019-03-22T10:11:40.844Z,32.70
2019-03-22T10:14:07.307Z,31.73
2019-03-22T10:16:33.734Z,31.50
2019-03-22T10:19:00.073Z,33.10
2019-03-22T10:21:26.395Z,30.23
2019-03-22T10:23:52.821Z,29.10
2019-03-22T10:26:21.009Z,27.17
2019-03-22T10:28:47.244Z,24.50
2019-03-22T10:31:13.562Z,23.80
2019-03-22T10:33:39.839Z,21.57
2019-03-22T10:36:06.306Z,20.73
2019-03-22T10:38:32.685Z,21.10
2019-03-22T10:40:59.075Z,21.43
2019-03-22T10:43:25.667Z,19.07
2019-03-22T10:45:52.069Z,18.37
2019-03-22T10:48:18.704Z,17.97
2019-03-22T10:50:45.167Z,17.53
2019-03-22T10:53:11.929Z,17.50
2019-03-22T10:55:38.246Z,17.60
2019-03-22T10:58:04.610Z,16.53
2019-03-22T11:00:31.040Z,17.43
2019-03-22T11:02:57.283Z,16.27
2019-03-22T11:05:25.510Z,15.27
2019-03-22T11:07:51.772Z,17.33
2019-03-22T11:10:17.999Z,16.03
2019-03-22T11:12:44.330Z,14.87
2019-03-22T11:15:11.965Z,15.73
2019-03-22T11:17:38.304Z,16.93
2019-03-22T11:20:16.045Z,14.17
2019-03-22T11:22:42.554Z,15.90
2019-03-22T11:25:09.161Z,14.57
2019-03-22T11:27:35.837Z,13.90
2019-03-22T11:30:05.560Z,14.07
2019-03-22T11:32:33.442Z,13.33
2019-03-22T11:35:00.441Z,14.50
2019-03-22T11:37:27.140Z,13.53
2019-03-22T11:39:53.401Z,13.00
2019-03-22T11:42:19.751Z,13.70
2019-03-22T11:44:46.080Z,13.97
2019-03-22T11:47:12.411Z,14.03
2019-03-22T11:49:38.686Z,14.90
2019-03-22T11:52:04.993Z,14.07
2019-03-22T11:54:31.628Z,12.43
2019-03-22T11:56:58.450Z,11.90
2019-03-22T11:59:24.784Z,12.87
2019-03-22T12:01:51.110Z,13.77
2019-03-22T12:04:17.326Z,13.47
2019-03-22T12:06:43.643Z,14.23
2019-03-22T12:09:10.004Z,14.57
2019-03-22T12:11:36.327Z,14.83
2019-03-22T12:14:03.279Z,15.53
2019-03-22T12:16:29.949Z,13.83
2019-03-22T12:18:56.559Z,11.07
2019-03-22T12:21:22.980Z,13.30
2019-03-22T12:23:49.309Z,13.30
2019-03-22T12:26:15.639Z,12.30
2019-03-22T12:28:41.971Z,9.50
2019-03-22T12:31:08.267Z,11.23
2019-03-22T12:33:34.565Z,11.47
2019-03-22T12:36:00.961Z,13.40
2019-03-22T12:38:27.394Z,13.90
2019-03-22T12:40:53.632Z,12.97
2019-03-22T12:43:19.952Z,12.93
2019-03-22T12:45:46.612Z,12.70
2019-03-22T12:48:13.023Z,13.47
2019-03-22T12:50:41.263Z,12.53
2019-03-22T12:53:07.474Z,12.97
2019-03-22T12:55:34.080Z,13.00
2019-03-22T12:58:00.495Z,11.93
2019-03-22T13:00:26.825Z,13.30
2019-03-22T13:02:53.565Z,12.60
2019-03-22T13:05:20.600Z,11.70
2019-03-22T13:07:46.991Z,11.50
2019-03-22T13:10:16.796Z,10.70
2019-03-22T13:12:43.112Z,12.30
2019-03-22T13:15:09.621Z,11.40
2019-03-22T13:17:35.952Z,11.20
2019-03-22T13:20:09.209Z,11.87
2019-03-22T13:22:35.577Z,12.23
2019-03-22T13:25:02.110Z,11.60
2019-03-22T13:27:28.445Z,10.87
2019-03-22T13:29:55.773Z,10.93
2019-03-22T13:32:22.123Z,11.03
2019-03-22T13:34:48.671Z,10.77
2019-03-22T13:37:15.090Z,11.33
2019-03-22T13:39:41.741Z,11.07
2019-03-22T13:42:07.957Z,10.23
2019-03-22T13:44:34.613Z,10.80
2019-03-22T13:47:01.026Z,10.47
2019-03-22T13:49:27.340Z,9.87
2019-03-22T13:51:54.018Z,9.60
2019-03-22T13:54:20.355Z,10.60
2019-03-22T13:56:46.666Z,10.27
2019-03-22T13:59:13.090Z,9.47
2019-03-22T14:01:39.423Z,9.80
2019-03-22T14:04:05.805Z,9.40
2019-03-22T14:06:32.125Z,10.53
2019-03-22T14:08:58.423Z,9.63
2019-03-22T14:11:24.840Z,9.57
2019-03-22T14:13:51.391Z,8.83
2019-03-22T14:16:17.727Z,8.37
2019-03-22T14:18:44.144Z,8.10
2019-03-22T14:21:11.108Z,7.20
2019-03-22T14:23:37.524Z,6.80
2019-03-22T14:26:03.957Z,7.10
2019-03-22T14:28:30.388Z,6.43
2019-03-22T14:30:56.622Z,5.67
2019-03-22T14:33:23.047Z,6.13
2019-03-22T14:35:49.598Z,6.30
2019-03-22T14:38:16.023Z,6.17
2019-03-22T14:40:42.294Z,6.43
2019-03-22T14:43:08.592Z,6.10
2019-03-22T14:45:35.002Z,7.40
2019-03-22T14:48:01.287Z,6.63
2019-03-22T14:50:27.612Z,7.57
2019-03-22T14:52:53.993Z,7.27
2019-03-22T14:55:20.426Z,6.97
2019-03-22T14:57:50.129Z,7.47
2019-03-22T15:00:15.644Z,8.37
2019-03-22T15:02:41.980Z,7.73
2019-03-22T15:05:08.513Z,8.33
2019-03-22T15:07:34.798Z,9.20
2019-03-22T15:10:01.500Z,9.27
2019-03-22T15:12:30.809Z,9.37
2019-03-22T15:15:02.743Z,9.40
2019-03-22T15:17:30.906Z,9.83
2019-03-22T15:20:15.698Z,8.63
2019-03-22T15:23:00.480Z,9.73
2019-03-22T15:25:45.204Z,8.90
2019-03-22T15:28:22.249Z,9.83
2019-03-22T15:31:07.151Z,9.20
2019-03-22T15:33:41.299Z,7.57
2019-03-22T15:36:12.981Z,7.93
2019-03-22T15:38:41.247Z,6.50
2019-03-22T15:41:07.577Z,6.47
2019-03-22T15:43:33.887Z,7.13
2019-03-22T15:46:00.288Z,6.70
2019-03-22T15:48:26.689Z,6.33
2019-03-22T15:50:53.051Z,7.33
2019-03-22T15:53:19.381Z,7.47
2019-03-22T15:55:45.590Z,7.50
2019-03-22T15:58:11.939Z,6.63
2019-03-22T16:00:38.273Z,6.33
2019-03-22T16:03:04.908Z,6.70
2019-03-22T16:05:31.238Z,6.70
2019-03-22T16:07:57.519Z,6.53
2019-03-22T16:10:23.900Z,5.90
2019-03-22T16:12:50.128Z,6.67
2019-03-22T16:15:16.605Z,5.67
2019-03-22T16:17:42.899Z,6.37
2019-03-22T16:20:11.781Z,6.13
2019-03-22T16:22:38.131Z,6.27
2019-03-22T16:25:06.899Z,6.80
2019-03-22T16:27:33.150Z,6.27
2019-03-22T16:29:59.559Z,7.33
2019-03-22T16:32:25.890Z,7.60
2019-03-22T16:34:52.220Z,6.80
2019-03-22T16:37:18.489Z,8.33
2019-03-22T16:39:44.881Z,6.87
2019-03-22T16:42:11.091Z,7.03
2019-03-22T16:44:37.383Z,7.07
2019-03-22T16:47:04.087Z,7.20
2019-03-22T16:49:30.837Z,6.30
2019-03-22T16:51:57.251Z,7.13
2019-03-22T16:54:23.541Z,6.67
2019-03-22T16:56:50.131Z,6.83
2019-03-22T16:59:16.546Z,6.27
2019-03-22T17:01:42.776Z,6.60
2019-03-22T17:04:09.087Z,6.63
2019-03-22T17:06:35.385Z,6.00
2019-03-22T17:09:01.868Z,6.67
2019-03-22T17:11:28.350Z,6.47
2019-03-22T17:13:54.648Z,6.80
2019-03-22T17:16:20.960Z,6.03
2019-03-22T17:18:47.614Z,6.33
2019-03-22T17:21:13.899Z,7.20
2019-03-22T17:23:40.587Z,6.87
2019-03-22T17:26:07.798Z,6.40
2019-03-22T17:28:34.457Z,6.50
2019-03-22T17:31:00.712Z,6.57
2019-03-22T17:33:27.015Z,6.17
2019-03-22T17:35:53.554Z,6.57
2019-03-22T17:38:19.830Z,7.00
2019-03-22T17:40:46.246Z,6.00
2019-03-22T17:43:12.644Z,5.63
2019-03-22T17:45:38.868Z,6.00
2019-03-22T17:48:05.304Z,5.40
2019-03-22T17:50:31.601Z,4.77
2019-03-22T17:52:57.902Z,5.13
2019-03-22T17:55:24.203Z,4.90
2019-03-22T17:57:50.522Z,6.07
2019-03-22T18:00:19.885Z,5.17
2019-03-22T18:02:46.269Z,5.07
2019-03-22T18:05:12.802Z,4.83
2019-03-22T18:07:39.555Z,4.57
2019-03-22T18:10:07.768Z,4.43
2019-03-22T18:12:35.166Z,4.90
2019-03-22T18:15:01.681Z,4.93
2019-03-22T18:17:28.230Z,4.70
2019-03-22T18:19:54.921Z,4.13
2019-03-22T18:22:21.301Z,5.73
2019-03-22T18:24:47.941Z,5.50
2019-03-22T18:27:14.162Z,4.83
2019-03-22T18:29:40.601Z,5.00
2019-03-22T18:32:06.930Z,6.07
2019-03-22T18:34:34.576Z,5.00
2019-03-22T18:37:01.276Z,5.67
2019-03-22T18:41:58.704Z,5.80
2019-03-22T18:44:25.034Z,5.40
2019-03-22T18:46:51.364Z,5.00
2019-03-22T18:49:17.797Z,4.97
2019-03-22T18:51:44.052Z,4.67
2019-03-22T18:54:10.354Z,4.67
2019-03-22T18:56:36.965Z,4.60
2019-03-22T18:59:03.328Z,5.53
2019-03-22T19:01:29.569Z,5.47
2019-03-22T19:03:55.984Z,6.07
2019-03-22T19:06:22.276Z,6.20
2019-03-22T19:08:48.645Z,7.90
2019-03-22T19:11:15.179Z,10.10
2019-03-22T19:13:41.837Z,11.73
2019-03-22T19:16:08.251Z,11.40
2019-03-22T19:18:34.723Z,10.53
2019-03-22T19:21:02.056Z,11.27
2019-03-22T19:23:28.469Z,10.87
2019-03-22T19:25:54.785Z,15.40
2019-03-22T19:28:21.130Z,14.30
2019-03-22T19:30:47.460Z,13.37
2019-03-22T19:33:13.704Z,14.77
2019-03-22T19:35:40.650Z,13.57
2019-03-22T19:38:06.963Z,12.73
2019-03-22T19:40:33.295Z,11.80
2019-03-22T19:42:59.626Z,11.33
2019-03-22T19:45:25.972Z,11.67
2019-03-22T19:47:52.387Z,11.70
2019-03-22T19:50:18.681Z,11.17
2019-03-22T19:52:45.068Z,10.67
2019-03-22T19:55:11.995Z,11.53
2019-03-22T19:57:38.527Z,9.60
2019-03-22T20:00:07.930Z,11.20
2019-03-22T20:02:34.243Z,10.53
2019-03-22T20:05:04.619Z,12.33
2019-03-22T20:07:28.661Z,11.70
2019-03-22T20:09:54.992Z,11.13
2019-03-22T20:12:21.323Z,11.03
2019-03-22T20:14:47.654Z,11.23
2019-03-22T20:17:13.871Z,12.33
2019-03-22T20:19:40.167Z,13.33
2019-03-22T20:22:06.478Z,15.37
2019-03-22T20:24:32.874Z,15.60
2019-03-22T20:26:59.180Z,17.60
2019-03-22T20:29:25.533Z,18.33
2019-03-22T20:31:51.798Z,18.63
2019-03-22T20:34:18.195Z,19.53
2019-03-22T20:36:44.631Z,19.60
2019-03-22T20:39:10.906Z,18.67
2019-03-22T20:41:37.286Z,19.23
2019-03-22T20:44:03.620Z,21.13
2019-03-22T20:46:30.273Z,21.33
2019-03-22T20:48:56.576Z,21.63
2019-03-22T20:51:22.883Z,22.50
2019-03-22T20:53:49.172Z,20.43
2019-03-22T20:56:15.467Z,22.53
2019-03-22T20:58:41.803Z,24.37
2019-03-22T21:01:08.133Z,23.20
2019-03-22T21:03:34.393Z,22.10
2019-03-22T21:06:00.716Z,24.23
2019-03-22T21:08:27.022Z,24.90
2019-03-22T21:10:53.580Z,25.03
2019-03-22T21:13:19.990Z,25.10
2019-03-22T21:15:46.285Z,25.50
2019-03-22T21:18:12.650Z,24.73
2019-03-22T21:20:38.904Z,25.23
2019-03-22T21:23:05.311Z,23.10
2019-03-22T21:25:31.867Z,24.20
2019-03-22T21:27:58.279Z,25.63
2019-03-22T21:30:24.932Z,25.47
2019-03-22T21:32:51.350Z,26.53
2019-03-22T21:45:06.075Z,26.67
2019-03-22T21:47:32.357Z,26.27
2019-03-22T21:49:58.739Z,27.23
2019-03-22T21:52:25.021Z,27.73
2019-03-22T21:54:51.394Z,28.10
2019-03-22T21:57:17.724Z,29.47
2019-03-22T21:59:45.210Z,28.93
2019-03-22T22:02:11.527Z,31.40
2019-03-22T22:04:38.167Z,29.20
2019-03-22T22:07:04.480Z,27.77
2019-03-22T22:09:31.221Z,27.40
2019-03-22T22:11:57.776Z,27.93
2019-03-22T22:14:24.190Z,29.27
2019-03-22T22:16:50.841Z,28.17
2019-03-22T22:19:17.586Z,31.43
2019-03-22T22:21:44.002Z,30.60
2019-03-22T22:24:10.334Z,31.53
2019-03-22T22:26:36.865Z,30.47
2019-03-22T22:29:03.111Z,31.73
2019-03-22T22:31:29.522Z,30.97
2019-03-22T22:33:55.955Z,36.73
2019-03-22T22:36:22.592Z,34.80
2019-03-22T22:41:15.253Z,36.17
2019-03-22T22:43:41.689Z,34.67
2019-03-22T22:46:08.121Z,35.33
2019-03-22T22:48:34.457Z,35.50
2019-03-22T22:51:00.782Z,36.97
2019-03-22T22:53:27.333Z,38.60
2019-03-22T22:55:53.968Z,37.03
2019-03-22T22:58:20.595Z,38.67
2019-03-22T23:00:47.535Z,34.40
2019-03-22T23:03:13.966Z,36.87
2019-03-22T23:05:40.260Z,36.30
2019-03-22T23:08:07.057Z,34.73
2019-03-22T23:10:33.475Z,38.40
2019-03-22T23:12:59.902Z,37.23
2019-03-22T23:15:26.252Z,35.67
2019-03-22T23:17:52.596Z,37.20
2019-03-22T23:20:18.995Z,38.73
2019-03-22T23:22:48.603Z,38.60
2019-03-22T23:25:14.936Z,39.00
2019-03-22T23:27:41.263Z,38.80
2019-03-22T23:30:10.171Z,39.87
2019-03-22T23:32:36.863Z,40.60
2019-03-22T23:35:05.286Z,42.07
2019-03-22T23:37:31.684Z,43.80
2019-03-22T23:39:58.039Z,43.77
2019-03-22T23:42:24.298Z,44.43
2019-03-22T23:44:50.597Z,45.73
2019-03-22T23:47:17.031Z,47.30
2019-03-22T23:49:43.359Z,44.83
2019-03-22T23:52:09.686Z,47.10
2019-03-22T23:54:36.016Z,49.07
2019-03-22T23:57:02.419Z,50.47
2019-03-22T23:59:28.782Z,49.90
